Time;durP1;ratioP1;P1;durP2;ratioP2;P2;SDS_P1;SDS_P2;PMS_P1;PMS_P2;Temp;Humidity;BMP_temperature;BMP_pressure;BME280_temperature;BME280_humidity;BME280_pressure;Samples;Min_cycle;Max_cycle;Signal;HPM_P1;HPM_P2
2023/01/17 00:00:04;;;;;;;10.40;8.40;;;20.20;64.10;;;;;;5076971;28;20071;-11
2023/01/17 00:02:30;;;;;;;12.23;8.63;;;20.20;64.20;;;;;;5079026;28;20135;-14
2023/01/17 00:10:26;;;;;;;11.23;8.55;;;20.20;64.00;;;;;;5070775;28;20344;-11
2023/01/17 00:12:53;;;;;;;9.25;7.50;;;20.10;64.30;;;;;;5079676;28;20040;-12
2023/01/17 00:15:19;;;;;;;8.40;7.47;;;20.10;64.60;;;;;;5078678;28;20048;-11
2023/01/17 00:17:45;;;;;;;9.43;7.50;;;20.10;64.30;;;;;;5076029;28;20520;-12
2023/01/17 00:26:03;;;;;;;10.60;7.93;;;20.00;64.50;;;;;;5055265;28;20487;-11
2023/01/17 01:35:20;;;;;;;5.50;5.00;;;19.60;64.70;;;;;;5074553;28;20051;-11
2023/01/17 01:37:45;;;;;;;5.40;4.97;;;19.60;64.80;;;;;;5075562;28;20040;-11
2023/01/17 01:40:11;;;;;;;5.95;5.00;;;19.50;64.70;;;;;;5077414;28;20381;-11
2023/01/17 01:42:36;;;;;;;4.78;4.38;;;19.50;65.00;;;;;;5072626;28;20051;-11
2023/01/17 01:45:14;;;;;;;5.13;4.63;;;19.50;64.80;;;;;;5077216;28;20459;-11
2023/01/17 01:47:40;;;;;;;5.20;4.70;;;19.50;64.90;;;;;;5078527;28;20087;-11
2023/01/17 01:50:07;;;;;;;5.72;5.18;;;19.50;64.70;;;;;;5081624;28;20075;-11
2023/01/17 01:52:33;;;;;;;4.63;4.22;;;19.50;64.90;;;;;;5052591;28;20036;-16
2023/01/17 01:55:04;;;;;;;5.78;4.85;;;19.40;64.80;;;;;;5056269;28;20041;-12
2023/01/17 01:57:33;;;;;;;5.00;4.50;;;19.30;64.80;;;;;;5070899;28;20032;-10
2023/01/17 02:00:02;;;;;;;5.50;4.78;;;19.40;65.40;;;;;;5053450;28;20044;-10
2023/01/17 02:02:27;;;;;;;4.80;4.32;;;19.50;64.80;;;;;;5077401;28;20043;-11
2023/01/17 02:04:53;;;;;;;4.93;4.53;;;19.30;65.00;;;;;;5072801;28;20037;-11
2023/01/17 02:07:28;;;;;;;3.97;3.70;;;19.30;64.60;;;;;;5078737;28;20274;-13
2023/01/17 02:09:54;;;;;;;4.50;4.10;;;19.40;65.10;;;;;;5066176;28;20041;-11
2023/01/17 02:12:20;;;;;;;4.70;4.40;;;19.30;64.80;;;;;;5079355;28;20036;-11
2023/01/17 02:14:45;;;;;;;4.32;4.03;;;19.20;64.40;;;;;;5082152;28;20068;-12
2023/01/17 02:17:22;;;;;;;4.88;4.47;;;19.30;65.30;;;;;;5075353;28;20032;-11
2023/01/17 02:20:19;;;;;;;4.03;3.83;;;19.20;64.90;;;;;;5077807;28;20032;-11
2023/01/17 02:23:09;;;;;;;4.40;4.00;;;19.20;64.60;;;;;;5078330;28;20048;-11
2023/01/17 02:25:53;;;;;;;4.00;3.70;;;19.20;65.00;;;;;;5078483;28;20551;-10
2023/01/17 02:29:12;;;;;;;3.88;3.58;;;19.10;65.50;;;;;;5077190;28;20059;-11
2023/01/17 02:31:50;;;;;;;4.13;3.78;;;19.10;65.00;;;;;;4990277;28;20050;-10
2023/01/17 02:34:27;;;;;;;3.78;3.47;;;19.10;65.80;;;;;;4980772;28;20038;-10
2023/01/17 02:37:04;;;;;;;4.28;3.90;;;19.10;65.20;;;;;;4967065;28;20109;-10
2023/01/17 02:39:33;;;;;;;3.80;3.50;;;19.10;64.90;;;;;;4973288;28;20126;-11
2023/01/17 02:42:05;;;;;;;3.47;3.28;;;19.10;65.10;;;;;;4985490;28;20448;-11
2023/01/17 02:44:40;;;;;;;3.85;3.55;;;19.10;65.20;;;;;;4983578;28;20046;-15
2023/01/17 02:47:35;;;;;;;3.85;3.63;;;19.10;65.30;;;;;;4985843;28;20031;-20
2023/01/17 02:50:05;;;;;;;;;;;19.00;65.20;;;;;;4991694;28;20186;-18
2023/01/17 02:52:54;;;;;;;3.33;3.03;;;19.00;65.10;;;;;;4978069;28;19920;-11
2023/01/17 02:55:50;;;;;;;4.00;3.70;;;19.00;65.30;;;;;;4976889;28;20087;-11
2023/01/17 02:58:27;;;;;;;3.50;3.20;;;19.10;65.20;;;;;;4991192;28;20071;-11
2023/01/17 03:00:59;;;;;;;3.17;2.97;;;19.00;65.20;;;;;;4970701;28;21173;-11
2023/01/17 03:03:29;;;;;;;3.38;3.17;;;19.00;65.40;;;;;;4974469;28;20598;-11
2023/01/17 03:06:03;;;;;;;3.10;2.90;;;19.00;65.20;;;;;;4989816;28;20038;-14
2023/01/17 03:08:28;;;;;;;3.13;2.92;;;19.00;65.40;;;;;;5051806;28;20071;-11
2023/01/17 03:10:54;;;;;;;3.05;2.85;;;19.00;65.70;;;;;;5046126;28;20502;-11
2023/01/17 03:13:20;;;;;;;3.30;3.10;;;19.00;65.60;;;;;;5075002;28;20044;-11
2023/01/17 03:15:45;;;;;;;3.13;2.92;;;18.90;65.70;;;;;;5078177;28;20090;-11
2023/01/17 03:18:13;;;;;;;3.00;2.80;;;18.90;65.70;;;;;;5050896;28;20082;-11
2023/01/17 03:20:38;;;;;;;3.33;3.03;;;19.00;65.60;;;;;;5066825;28;20033;-11
2023/01/17 03:23:04;;;;;;;2.92;2.72;;;19.00;65.70;;;;;;5080022;28;20401;-11
2023/01/17 03:25:29;;;;;;;3.03;2.83;;;19.00;65.60;;;;;;5073109;28;20032;-11
2023/01/17 03:27:55;;;;;;;3.33;3.13;;;18.90;65.70;;;;;;5073022;28;20525;-10
2023/01/17 03:30:21;;;;;;;3.08;2.88;;;19.00;65.40;;;;;;5072571;28;20515;-11
2023/01/17 03:32:47;;;;;;;2.90;2.70;;;19.00;65.40;;;;;;5074532;28;20123;-11
2023/01/17 03:35:13;;;;;;;2.90;2.70;;;19.00;65.40;;;;;;5076771;28;20040;-10
2023/01/17 03:37:39;;;;;;;3.22;3.03;;;19.00;65.50;;;;;;5077357;28;20451;-11
2023/01/17 03:40:05;;;;;;;2.78;2.58;;;18.90;66.10;;;;;;5075457;28;20056;-12
2023/01/17 03:42:30;;;;;;;3.08;2.88;;;18.90;65.50;;;;;;5074634;28;20047;-13
2023/01/17 03:44:56;;;;;;;2.95;2.80;;;19.00;65.60;;;;;;5073859;28;20044;-11
2023/01/17 03:47:21;;;;;;;2.60;2.50;;;19.00;65.40;;;;;;5076408;28;20409;-11
2023/01/17 03:49:47;;;;;;;2.65;2.45;;;18.90;65.60;;;;;;5076323;28;20051;-11
2023/01/17 03:52:13;;;;;;;2.70;2.60;;;18.90;65.80;;;;;;5074107;28;20422;-11
2023/01/17 03:54:38;;;;;;;2.83;2.63;;;18.90;65.70;;;;;;5072968;28;20036;-10
2023/01/17 03:57:04;;;;;;;3.03;2.83;;;18.80;65.90;;;;;;5073072;28;20037;-10
2023/01/17 03:59:32;;;;;;;2.60;2.40;;;18.90;65.80;;;;;;5075755;28;20033;-11
2023/01/17 04:01:57;;;;;;;2.30;2.20;;;18.80;65.90;;;;;;5071790;28;20036;-11
2023/01/17 04:04:23;;;;;;;2.33;2.22;;;18.80;65.90;;;;;;5073945;28;20045;-11
2023/01/17 04:06:48;;;;;;;2.58;2.40;;;18.80;65.90;;;;;;5069667;28;20497;-11
2023/01/17 04:09:14;;;;;;;2.90;2.70;;;18.80;65.90;;;;;;5071041;28;20037;-11
2023/01/17 04:11:39;;;;;;;2.50;2.40;;;18.80;66.00;;;;;;5077301;28;20029;-11
2023/01/17 04:14:05;;;;;;;2.88;2.67;;;18.90;65.90;;;;;;5077301;28;20451;-11
2023/01/17 04:16:30;;;;;;;2.40;2.30;;;18.90;65.70;;;;;;5074086;28;20044;-10
2023/01/17 04:18:56;;;;;;;2.60;2.40;;;18.90;65.90;;;;;;5077982;28;20036;-11
2023/01/17 04:21:22;;;;;;;2.22;2.13;;;18.90;65.90;;;;;;5067141;28;20065;-11
2023/01/17 04:23:47;;;;;;;2.13;2.03;;;18.90;65.70;;;;;;5072469;28;20028;-10
2023/01/17 04:26:13;;;;;;;2.67;2.47;;;18.90;65.90;;;;;;5075292;28;20089;-11
2023/01/17 04:28:38;;;;;;;2.38;2.20;;;18.90;65.70;;;;;;5075876;28;20490;-10
2023/01/17 04:31:04;;;;;;;2.38;2.17;;;18.90;65.60;;;;;;5073107;28;20055;-14
2023/01/17 04:33:30;;;;;;;2.65;2.45;;;18.90;65.70;;;;;;5078058;28;20043;-11
2023/01/17 04:35:55;;;;;;;2.40;2.30;;;18.80;65.80;;;;;;5071241;28;20052;-10
2023/01/17 04:38:22;;;;;;;2.47;2.30;;;18.90;65.70;;;;;;5076753;28;20036;-11
2023/01/17 04:40:47;;;;;;;2.10;2.00;;;18.90;65.80;;;;;;5076451;28;20085;-10
2023/01/17 04:43:14;;;;;;;2.38;2.28;;;19.00;65.70;;;;;;5067930;28;20036;-17
2023/01/17 04:45:39;;;;;;;2.35;2.25;;;18.90;65.40;;;;;;5076982;28;20075;-22
2023/01/17 04:48:05;;;;;;;2.30;2.20;;;19.00;65.30;;;;;;5068469;28;20450;-11
2023/01/17 04:50:31;;;;;;;2.47;2.30;;;18.90;65.60;;;;;;5076428;28;20048;-11
2023/01/17 04:52:57;;;;;;;2.10;2.00;;;18.90;65.50;;;;;;5074406;28;20048;-12
2023/01/17 04:55:23;;;;;;;1.90;1.80;;;18.80;65.90;;;;;;5069260;28;20082;-12
2023/01/17 04:57:49;;;;;;;2.30;2.20;;;18.80;65.90;;;;;;5077253;28;20508;-11
2023/01/17 05:00:15;;;;;;;2.47;2.28;;;18.90;65.60;;;;;;5076426;28;20036;-10
2023/01/17 05:02:40;;;;;;;2.03;1.92;;;18.90;65.60;;;;;;5058777;28;20252;-11
2023/01/17 05:05:06;;;;;;;1.95;1.85;;;18.90;65.50;;;;;;5075707;28;20045;-11
2023/01/17 05:07:32;;;;;;;2.38;2.20;;;18.90;65.50;;;;;;5078307;28;20051;-10
2023/01/17 05:09:59;;;;;;;1.98;1.88;;;18.90;65.70;;;;;;5078849;28;20087;-11
2023/01/17 05:12:25;;;;;;;2.10;2.00;;;18.80;65.50;;;;;;5076235;28;20120;-19
2023/01/17 05:14:51;;;;;;;1.95;1.85;;;18.80;65.70;;;;;;5077016;28;20444;-15
2023/01/17 05:17:17;;;;;;;2.03;1.92;;;18.80;65.80;;;;;;5077324;28;20116;-11
2023/01/17 05:19:42;;;;;;;2.20;2.10;;;18.80;65.60;;;;;;5067916;28;20047;-11
2023/01/17 05:22:16;;;;;;;1.70;1.60;;;18.90;65.30;;;;;;5072790;28;20048;-11
2023/01/17 05:24:45;;;;;;;1.92;1.83;;;18.90;65.30;;;;;;5067836;28;20519;-10
2023/01/17 05:27:11;;;;;;;1.77;1.67;;;18.90;65.30;;;;;;5074199;28;20123;-11
2023/01/17 05:29:37;;;;;;;1.50;1.40;;;18.80;65.50;;;;;;5074942;28;20179;-11
2023/01/17 05:32:03;;;;;;;1.70;1.60;;;18.80;65.30;;;;;;5077464;28;20059;-11
2023/01/17 05:34:29;;;;;;;2.20;2.10;;;18.70;65.60;;;;;;5076713;28;20037;-10
2023/01/17 05:36:54;;;;;;;1.90;1.80;;;18.80;65.60;;;;;;5073536;28;20387;-11
2023/01/17 05:39:20;;;;;;;1.80;1.70;;;18.70;65.80;;;;;;5074720;28;20048;-10
2023/01/17 05:41:45;;;;;;;1.65;1.55;;;18.70;65.80;;;;;;5077456;28;20119;-11
2023/01/17 05:44:11;;;;;;;1.70;1.60;;;18.70;66.00;;;;;;5072106;28;20044;-11
2023/01/17 05:46:37;;;;;;;1.70;1.60;;;18.70;66.00;;;;;;5074218;28;20044;-14
2023/01/17 05:49:02;;;;;;;1.50;1.40;;;18.70;65.70;;;;;;5078600;28;20036;-11
2023/01/17 05:51:28;;;;;;;1.80;1.70;;;18.70;65.70;;;;;;5073634;28;20064;-11
2023/01/17 05:53:54;;;;;;;1.52;1.42;;;18.70;65.70;;;;;;5074906;28;20028;-11
2023/01/17 05:56:19;;;;;;;1.48;1.40;;;18.60;65.80;;;;;;5073683;28;20131;-10
2023/01/17 05:58:45;;;;;;;1.70;1.60;;;18.70;65.70;;;;;;5074133;28;20029;-10
2023/01/17 06:01:10;;;;;;;1.60;1.50;;;18.60;66.10;;;;;;5072486;28;20515;-11
2023/01/17 06:03:36;;;;;;;1.40;1.30;;;18.70;65.60;;;;;;5064049;28;20033;-11
2023/01/17 06:06:02;;;;;;;1.60;1.50;;;18.60;65.90;;;;;;5070393;28;20039;-10
2023/01/17 06:08:27;;;;;;;1.70;1.60;;;18.60;65.80;;;;;;5077839;28;20055;-11
2023/01/17 06:10:53;;;;;;;1.42;1.33;;;18.60;65.80;;;;;;5076275;28;20463;-10
2023/01/17 06:13:20;;;;;;;2.00;1.90;;;18.60;65.90;;;;;;5063046;28;20041;-11
2023/01/17 06:15:46;;;;;;;1.35;1.30;;;18.50;66.00;;;;;;5070587;28;20548;-14
2023/01/17 06:18:14;;;;;;;1.50;1.40;;;18.50;66.10;;;;;;5068396;28;20045;-11
2023/01/17 06:20:39;;;;;;;1.27;1.20;;;18.50;66.20;;;;;;5072007;28;20063;-12
2023/01/17 06:23:07;;;;;;;1.42;1.33;;;18.50;66.30;;;;;;5069467;28;20489;-11
2023/01/17 06:25:40;;;;;;;1.30;1.20;;;18.60;66.20;;;;;;5071305;28;20037;-10
2023/01/17 06:28:06;;;;;;;1.58;1.48;;;18.60;66.10;;;;;;5073582;28;20355;-11
2023/01/17 06:30:32;;;;;;;1.70;1.35;;;18.60;65.80;;;;;;5065353;28;20477;-11
2023/01/17 06:32:57;;;;;;;1.70;1.60;;;18.50;65.60;;;;;;5053034;28;20048;-16
2023/01/17 06:35:23;;;;;;;1.40;1.30;;;18.70;65.90;;;;;;5070561;28;20119;-12
2023/01/17 06:37:51;;;;;;;1.45;1.35;;;18.80;65.50;;;;;;5071381;28;20039;-12
2023/01/17 06:40:17;;;;;;;1.50;1.40;;;18.70;65.70;;;;;;5076000;28;20072;-12
2023/01/17 06:42:42;;;;;;;1.25;1.25;;;18.70;65.30;;;;;;5078276;28;20135;-11
2023/01/17 06:45:08;;;;;;;1.23;1.13;;;18.70;66.30;;;;;;5074673;28;20046;-12
2023/01/17 06:47:37;;;;;;;1.30;1.30;;;18.70;65.60;;;;;;5075883;28;20142;-12
2023/01/17 06:50:04;;;;;;;1.40;1.30;;;18.70;65.80;;;;;;5072868;28;20064;-12
2023/01/17 06:52:29;;;;;;;1.20;1.10;;;18.70;65.40;;;;;;5065465;28;20063;-12
2023/01/17 06:54:55;;;;;;;0.93;0.93;;;18.60;65.50;;;;;;5076350;28;20052;-11
2023/01/17 06:57:20;;;;;;;1.67;1.00;;;18.50;65.80;;;;;;5076043;28;20687;-12
2023/01/17 06:59:46;;;;;;;1.60;1.50;;;18.70;66.10;;;;;;5074481;28;20102;-12
2023/01/17 07:02:11;;;;;;;2.08;1.98;;;18.80;65.70;;;;;;5067863;28;20548;-12
2023/01/17 07:04:37;;;;;;;3.63;2.60;;;18.80;65.50;;;;;;5055212;28;20517;-26
2023/01/17 07:07:03;;;;;;;3.40;3.08;;;18.80;65.50;;;;;;5074217;28;20044;-26
2023/01/17 07:09:28;;;;;;;2.90;2.70;;;18.80;65.90;;;;;;5074008;28;20044;-25
2023/01/17 07:11:58;;;;;;;3.20;2.90;;;18.70;65.90;;;;;;5078670;28;20086;-28
2023/01/17 07:14:24;;;;;;;4.20;3.30;;;18.70;66.20;;;;;;5071197;28;20059;-26
2023/01/17 07:16:49;;;;;;;4.80;3.92;;;18.70;66.20;;;;;;5066736;28;20433;-28
2023/01/17 07:19:15;;;;;;;4.95;4.55;;;18.90;65.70;;;;;;5077719;28;20135;-33
2023/01/17 07:21:40;;;;;;;4.63;4.22;;;18.70;65.80;;;;;;5078000;28;20119;-28
2023/01/17 07:24:06;;;;;;;6.10;4.90;;;18.70;66.10;;;;;;5070679;28;20055;-27
2023/01/17 07:26:32;;;;;;;5.22;4.30;;;18.80;66.20;;;;;;5068888;28;20506;-28
2023/01/17 07:28:58;;;;;;;4.88;4.45;;;18.90;66.00;;;;;;5072373;28;20728;-27
2023/01/17 07:31:23;;;;;;;4.25;3.92;;;18.80;66.10;;;;;;5070415;28;20036;-25
2023/01/17 07:33:49;;;;;;;3.90;3.50;;;18.80;65.90;;;;;;5075679;28;20446;-29
2023/01/17 07:36:14;;;;;;;4.80;4.35;;;18.80;66.10;;;;;;5075608;28;20056;-28
2023/01/17 07:38:42;;;;;;;5.28;4.30;;;18.80;66.70;;;;;;5072791;28;20043;-25
2023/01/17 07:41:08;;;;;;;3.55;3.25;;;18.90;66.10;;;;;;5078797;28;20044;-28
2023/01/17 07:43:34;;;;;;;4.22;3.85;;;18.90;66.20;;;;;;5080769;28;20055;-28
2023/01/17 07:45:59;;;;;;;4.32;3.55;;;19.00;65.80;;;;;;5076327;28;20576;-29
2023/01/17 07:48:25;;;;;;;3.85;3.55;;;19.00;65.60;;;;;;5067720;28;20045;-26
2023/01/17 07:50:54;;;;;;;3.97;3.67;;;19.00;65.90;;;;;;5080267;28;20052;-29
2023/01/17 07:53:21;;;;;;;6.13;3.55;;;19.00;65.80;;;;;;5077920;28;20042;-25
2023/01/17 07:55:47;;;;;;;3.45;3.20;;;19.10;65.70;;;;;;5078891;28;20048;-30
2023/01/17 07:58:13;;;;;;;5.05;3.40;;;19.00;65.60;;;;;;5078398;28;20579;-26
2023/01/17 08:00:41;;;;;;;3.65;3.20;;;19.00;66.00;;;;;;5080619;28;20036;-24
2023/01/17 08:03:08;;;;;;;3.03;2.70;;;19.00;66.30;;;;;;5079494;28;20048;-28
2023/01/17 08:05:34;;;;;;;3.40;3.10;;;19.00;66.40;;;;;;5076511;28;20607;-27
2023/01/17 08:07:59;;;;;;;3.58;3.08;;;19.00;66.20;;;;;;5079035;28;20119;-27
2023/01/17 08:10:25;;;;;;;4.43;3.70;;;19.00;66.40;;;;;;5077245;28;20408;-27
2023/01/17 08:12:50;;;;;;;2.97;2.78;;;19.10;66.20;;;;;;5081199;28;20040;-28
2023/01/17 08:15:16;;;;;;;3.10;2.90;;;19.10;66.20;;;;;;5076625;28;20047;-26
2023/01/17 08:17:52;;;;;;;3.05;2.85;;;19.10;66.20;;;;;;5078921;28;20059;-30
2023/01/17 08:20:17;;;;;;;3.83;3.08;;;19.10;66.10;;;;;;5077149;28;20539;-26
2023/01/17 08:22:43;;;;;;;3.72;3.42;;;19.10;66.60;;;;;;5080122;28;20044;-27
2023/01/17 08:25:08;;;;;;;3.45;3.08;;;19.20;66.70;;;;;;5078350;28;20032;-27
2023/01/17 08:27:34;;;;;;;5.40;3.15;;;19.10;66.80;;;;;;5079147;28;20492;-26
2023/01/17 08:30:00;;;;;;;3.58;3.28;;;19.20;66.90;;;;;;5074741;28;20520;-24
2023/01/17 08:32:25;;;;;;;6.85;3.10;;;19.20;67.00;;;;;;5060469;28;20044;-31
2023/01/17 08:34:51;;;;;;;3.85;3.38;;;19.20;67.10;;;;;;5078801;28;20111;-24
2023/01/17 08:37:16;;;;;;;3.45;3.13;;;19.20;67.10;;;;;;5075707;28;20044;-25
2023/01/17 08:39:42;;;;;;;3.72;3.17;;;19.20;67.10;;;;;;5078238;28;20045;-26
2023/01/17 08:42:08;;;;;;;3.50;3.20;;;19.20;67.20;;;;;;5073943;28;20048;-28
2023/01/17 08:44:33;;;;;;;3.20;3.00;;;19.20;67.20;;;;;;5076997;28;20044;-27
2023/01/17 08:46:59;;;;;;;4.55;3.17;;;19.30;67.30;;;;;;5078414;28;20048;-29
2023/01/17 08:49:25;;;;;;;3.17;2.97;;;19.20;67.20;;;;;;5075280;28;20041;-24
2023/01/17 08:51:51;;;;;;;3.22;2.92;;;19.30;67.10;;;;;;5082489;28;20036;-24
2023/01/17 08:54:18;;;;;;;3.38;3.08;;;19.30;67.20;;;;;;5076065;28;20048;-26
2023/01/17 08:56:45;;;;;;;3.13;2.80;;;19.30;67.30;;;;;;5078519;28;20463;-27
2023/01/17 08:59:11;;;;;;;2.88;2.58;;;19.20;67.30;;;;;;5078120;28;20056;-27
2023/01/17 09:01:40;;;;;;;3.25;2.95;;;19.30;67.20;;;;;;5075001;28;20080;-27
2023/01/17 09:04:09;;;;;;;3.50;2.67;;;19.30;67.10;;;;;;5074870;28;20037;-27
2023/01/17 09:06:38;;;;;;;3.03;2.72;;;19.30;67.00;;;;;;5077773;28;20078;-26
2023/01/17 09:09:04;;;;;;;2.83;2.63;;;19.30;66.90;;;;;;5078561;28;20040;-27
2023/01/17 09:11:30;;;;;;;3.03;2.42;;;19.30;66.90;;;;;;5077092;28;20109;-28
2023/01/17 09:13:56;;;;;;;2.90;2.70;;;19.30;66.90;;;;;;5077182;28;20310;-33
2023/01/17 09:16:21;;;;;;;2.20;2.10;;;19.30;66.80;;;;;;5076699;28;20048;-24
2023/01/17 09:18:47;;;;;;;2.60;2.40;;;19.30;66.80;;;;;;5079393;28;20044;-27
2023/01/17 09:21:14;;;;;;;2.40;2.20;;;19.40;66.70;;;;;;5077509;28;20131;-24
2023/01/17 09:23:40;;;;;;;2.80;2.50;;;19.40;66.70;;;;;;5078389;28;20044;-28
2023/01/17 09:26:06;;;;;;;2.50;2.20;;;19.40;66.70;;;;;;5078975;28;20040;-27
2023/01/17 09:28:38;;;;;;;2.20;2.10;;;19.40;66.60;;;;;;5077972;28;21273;-29
2023/01/17 09:31:06;;;;;;;2.08;1.83;;;19.30;66.70;;;;;;5078415;28;20101;-28
2023/01/17 09:33:31;;;;;;;2.42;2.22;;;19.40;66.70;;;;;;5076867;28;20093;-24
2023/01/17 09:36:00;;;;;;;2.15;2.05;;;19.40;66.60;;;;;;5079508;28;20513;-26
2023/01/17 09:38:26;;;;;;;2.10;2.00;;;19.40;66.50;;;;;;5076241;28;20501;-26
2023/01/17 09:40:51;;;;;;;1.90;1.80;;;19.40;66.60;;;;;;5078609;28;21301;-32
2023/01/17 09:43:36;;;;;;;2.22;2.13;;;19.40;66.50;;;;;;5079926;28;20040;-24
2023/01/17 09:46:02;;;;;;;2.22;1.75;;;19.40;66.40;;;;;;5058512;28;20040;-25
2023/01/17 09:48:33;;;;;;;1.92;1.70;;;19.40;66.50;;;;;;5078083;28;20194;-24
2023/01/17 09:51:01;;;;;;;1.90;1.80;;;19.40;66.50;;;;;;5059276;28;20044;-31
2023/01/17 09:53:27;;;;;;;1.83;1.73;;;19.40;66.40;;;;;;5075172;28;20052;-27
2023/01/17 09:55:57;;;;;;;1.95;1.85;;;19.50;66.30;;;;;;5061358;28;20055;-28
2023/01/17 09:58:30;;;;;;;3.05;2.00;;;19.50;67.10;;;;;;5053968;28;20048;-27
2023/01/17 10:01:23;;;;;;;1.75;1.65;;;19.50;67.10;;;;;;5075457;28;20059;-29
2023/01/17 10:04:08;;;;;;;1.83;1.65;;;19.50;66.30;;;;;;5072477;28;20098;-27
2023/01/17 10:07:03;;;;;;;1.90;1.70;;;19.50;66.30;;;;;;5079016;28;20284;-24
2023/01/17 10:09:41;;;;;;;1.73;1.60;;;19.50;66.30;;;;;;5061175;28;20493;-26
2023/01/17 10:12:45;;;;;;;1.48;1.38;;;19.50;66.30;;;;;;5078661;28;20044;-25
2023/01/17 10:15:41;;;;;;;1.48;1.38;;;19.50;66.10;;;;;;5042382;28;20067;-29
2023/01/17 10:18:24;;;;;;;1.50;1.40;;;19.50;66.20;;;;;;5077091;28;20036;-24
2023/01/17 10:20:56;;;;;;;1.60;1.50;;;19.50;66.30;;;;;;5079773;28;20050;-29
2023/01/17 10:24:02;;;;;;;2.45;1.48;;;19.50;66.30;;;;;;5081434;28;20040;-25
2023/01/17 10:26:28;;;;;;;2.65;1.50;;;19.50;66.20;;;;;;5057760;28;20040;-25
2023/01/17 10:28:58;;;;;;;1.35;1.25;;;19.50;66.30;;;;;;5079469;28;20489;-25
2023/01/17 10:31:25;;;;;;;1.58;1.48;;;19.50;66.10;;;;;;5055273;28;20048;-31
2023/01/17 10:34:02;;;;;;;1.65;1.55;;;19.50;66.10;;;;;;5080311;28;20086;-26
2023/01/17 10:36:37;;;;;;;2.03;1.75;;;19.50;66.00;;;;;;5079935;28;20059;-25
2023/01/17 10:39:14;;;;;;;1.40;1.30;;;19.50;66.10;;;;;;5063970;28;20517;-30
2023/01/17 10:41:44;;;;;;;1.50;1.40;;;19.60;66.10;;;;;;5062981;28;20496;-28
2023/01/17 10:44:09;;;;;;;2.60;1.38;;;19.60;66.10;;;;;;5061696;28;20111;-32
2023/01/17 10:46:39;;;;;;;1.40;1.30;;;19.60;66.20;;;;;;5081661;28;20115;-25
2023/01/17 10:49:06;;;;;;;1.40;1.30;;;19.60;66.10;;;;;;5062997;28;20054;-28
2023/01/17 10:51:48;;;;;;;2.08;1.45;;;19.60;66.10;;;;;;5063318;28;20097;-26
2023/01/17 10:54:23;;;;;;;1.23;1.13;;;19.60;66.00;;;;;;5061703;28;20051;-28
2023/01/17 10:56:48;;;;;;;1.50;1.40;;;19.60;65.80;;;;;;5080440;28;20047;-28
2023/01/17 10:59:30;;;;;;;1.10;1.00;;;19.60;65.90;;;;;;5063986;28;20044;-27
2023/01/17 11:01:57;;;;;;;1.60;1.50;;;19.60;65.80;;;;;;5064574;28;20051;-28
2023/01/17 11:04:31;;;;;;;1.38;1.27;;;19.60;65.90;;;;;;5081346;28;20093;-28
2023/01/17 11:07:13;;;;;;;1.10;1.10;;;19.60;66.00;;;;;;5065648;28;20036;-26
2023/01/17 11:09:40;;;;;;;1.25;1.15;;;19.60;66.10;;;;;;5081469;28;20048;-24
2023/01/17 11:12:35;;;;;;;1.20;1.10;;;19.60;66.00;;;;;;5081217;28;20080;-28
2023/01/17 11:15:09;;;;;;;1.05;1.05;;;19.70;65.90;;;;;;5045774;28;20040;-25
2023/01/17 11:17:45;;;;;;;1.20;1.20;;;19.70;65.70;;;;;;5069246;28;20074;-29
2023/01/17 11:20:11;;;;;;;1.30;1.13;;;19.70;65.60;;;;;;5054278;28;20047;-27
2023/01/17 11:22:36;;;;;;;0.93;0.93;;;19.70;65.70;;;;;;5072958;28;20028;-28
2023/01/17 11:25:02;;;;;;;1.58;1.48;;;19.70;65.70;;;;;;5077968;28;20071;-27
2023/01/17 11:27:34;;;;;;;2.10;2.00;;;19.80;65.60;;;;;;5057231;28;20051;-28
2023/01/17 11:30:05;;;;;;;2.30;2.10;;;19.70;65.50;;;;;;5055070;28;20109;-28
2023/01/17 11:32:31;;;;;;;4.65;3.17;;;19.70;65.90;;;;;;5075301;28;20037;-23
2023/01/17 11:35:13;;;;;;;3.33;3.13;;;19.70;65.70;;;;;;5081242;28;20044;-24
2023/01/17 11:37:40;;;;;;;3.90;3.60;;;19.70;66.00;;;;;;5075432;28;20049;-27
2023/01/17 11:40:26;;;;;;;3.75;3.45;;;19.70;66.10;;;;;;5061427;28;20040;-27
2023/01/17 11:43:24;;;;;;;3.90;3.40;;;19.70;66.20;;;;;;5060930;28;20134;-26
2023/01/17 11:46:11;;;;;;;5.20;3.17;;;19.70;66.20;;;;;;5053200;28;20397;-29
2023/01/17 11:48:37;;;;;;;3.95;3.50;;;19.70;66.20;;;;;;5076223;28;20055;-26
2023/01/17 11:51:03;;;;;;;4.15;3.75;;;19.70;66.30;;;;;;5079662;28;20052;-26
2023/01/17 11:53:31;;;;;;;3.35;3.05;;;19.70;66.30;;;;;;5059828;28;20044;-25
2023/01/17 11:56:10;;;;;;;3.72;3.28;;;19.70;66.30;;;;;;5071772;28;20048;-24
2023/01/17 11:58:37;;;;;;;3.38;3.10;;;19.70;66.20;;;;;;5077635;28;20568;-26
2023/01/17 12:01:32;;;;;;;3.13;2.88;;;19.80;66.30;;;;;;5078353;28;20044;-27
2023/01/17 12:04:15;;;;;;;3.55;3.15;;;19.80;66.30;;;;;;5074837;28;20448;-25
2023/01/17 12:07:11;;;;;;;3.40;3.10;;;19.80;66.30;;;;;;5074839;28;20113;-25
2023/01/17 12:09:48;;;;;;;2.85;2.65;;;19.80;66.30;;;;;;5059196;28;20082;-27
2023/01/17 12:15:12;;;;;;;3.15;2.80;;;19.70;66.40;;;;;;5073249;28;20101;-29
2023/01/17 12:17:48;;;;;;;5.45;2.85;;;19.80;66.40;;;;;;5076990;28;20078;-26
2023/01/17 12:20:37;;;;;;;2.58;2.38;;;19.80;66.30;;;;;;5053824;28;20071;-32
2023/01/17 12:23:07;;;;;;;2.85;2.30;;;19.80;66.30;;;;;;5054658;28;20063;-27
2023/01/17 12:25:38;;;;;;;2.95;2.38;;;19.80;66.30;;;;;;5076959;28;20405;-28
2023/01/17 12:28:14;;;;;;;3.17;2.53;;;19.80;66.20;;;;;;5060662;28;20051;-27
2023/01/17 12:30:52;;;;;;;3.03;1.92;;;19.80;66.40;;;;;;5058074;28;20056;-30
2023/01/17 12:33:38;;;;;;;3.95;2.33;;;19.80;66.20;;;;;;5060720;28;20079;-29
2023/01/17 12:36:16;;;;;;;2.42;1.95;;;19.80;66.10;;;;;;5060311;28;20044;-31
2023/01/17 12:38:42;;;;;;;2.30;2.10;;;19.80;66.10;;;;;;5058281;28;20035;-28
2023/01/17 12:41:17;;;;;;;2.25;2.05;;;19.80;66.00;;;;;;5060808;28;20040;-28
2023/01/17 12:43:43;;;;;;;2.55;2.35;;;19.80;66.00;;;;;;5077988;28;20037;-29
2023/01/17 12:46:19;;;;;;;2.42;2.25;;;19.80;66.10;;;;;;5079233;28;20048;-26
2023/01/17 12:48:47;;;;;;;2.10;1.95;;;19.90;66.10;;;;;;5078023;28;20097;-25
2023/01/17 12:51:16;;;;;;;2.15;2.05;;;19.90;66.10;;;;;;5051427;28;20226;-24
2023/01/17 12:54:07;;;;;;;1.80;1.70;;;19.90;66.10;;;;;;5050298;28;20062;-28
2023/01/17 12:56:43;;;;;;;2.22;1.80;;;19.90;66.10;;;;;;5042551;28;20040;-24
2023/01/17 12:59:14;;;;;;;2.10;1.90;;;19.90;66.00;;;;;;5077077;28;20566;-26
2023/01/17 13:01:41;;;;;;;1.73;1.63;;;19.90;66.00;;;;;;5077203;28;20050;-28
2023/01/17 13:04:23;;;;;;;1.80;1.70;;;19.90;66.00;;;;;;5054924;28;20131;-24
2023/01/17 13:06:57;;;;;;;1.88;1.77;;;19.90;66.00;;;;;;5031795;28;20453;-14
2023/01/17 13:09:23;;;;;;;2.10;2.00;;;20.00;66.00;;;;;;5077731;28;20090;-13
2023/01/17 13:12:15;;;;;;;1.92;1.63;;;19.90;66.00;;;;;;5076761;28;20041;-15
2023/01/17 13:14:41;;;;;;;3.33;1.83;;;19.90;65.90;;;;;;5072686;28;20032;-14
2023/01/17 13:17:37;;;;;;;1.90;1.80;;;19.90;65.80;;;;;;5078911;28;20066;-19
2023/01/17 13:20:15;;;;;;;1.65;1.50;;;20.00;65.90;;;;;;5072365;28;20041;-20
2023/01/17 13:22:40;;;;;;;1.83;1.73;;;20.00;65.90;;;;;;5075274;28;20051;-14
2023/01/17 13:25:12;;;;;;;1.65;1.55;;;20.00;65.90;;;;;;5079672;28;20044;-14
2023/01/17 13:27:48;;;;;;;1.45;1.35;;;20.00;65.80;;;;;;5076688;28;20497;-18
2023/01/17 13:30:55;;;;;;;1.70;1.60;;;20.00;65.80;;;;;;5057875;28;20068;-14
2023/01/17 13:33:58;;;;;;;1.50;1.40;;;20.00;65.80;;;;;;5022585;28;20568;-15
2023/01/17 13:36:36;;;;;;;1.70;1.60;;;20.00;65.70;;;;;;4945467;29;20102;-16
2023/01/17 13:39:09;;;;;;;1.83;1.58;;;20.00;65.70;;;;;;4946062;29;21175;-14
2023/01/17 13:41:41;;;;;;;1.60;1.50;;;20.00;65.70;;;;;;4929176;29;20433;-13
2023/01/17 13:44:20;;;;;;;1.40;1.30;;;20.00;65.80;;;;;;4928396;29;20287;-13
2023/01/17 13:46:59;;;;;;;1.50;1.40;;;20.00;66.60;;;;;;4930075;29;20105;-14
2023/01/17 13:49:40;;;;;;;1.13;1.02;;;20.00;65.60;;;;;;4945976;29;20044;-16
2023/01/17 13:52:18;;;;;;;1.20;1.10;;;20.00;65.50;;;;;;4943586;29;20051;-14
2023/01/17 13:54:50;;;;;;;1.77;1.67;;;20.10;65.60;;;;;;4944360;29;20102;-14
2023/01/17 13:57:24;;;;;;;1.20;1.15;;;20.00;65.50;;;;;;4931163;29;20102;-15
2023/01/17 13:59:50;;;;;;;1.30;1.20;;;20.00;65.70;;;;;;4945333;29;20073;-14
2023/01/17 14:02:31;;;;;;;1.20;1.10;;;20.00;65.60;;;;;;4946501;29;20059;-15
2023/01/17 14:05:06;;;;;;;1.35;1.15;;;20.00;65.70;;;;;;4946213;29;20044;-13
2023/01/17 14:07:34;;;;;;;1.40;1.30;;;20.00;65.50;;;;;;4945761;29;20108;-20
2023/01/17 14:09:59;;;;;;;1.10;1.10;;;20.00;65.50;;;;;;4941119;28;21293;-18
2023/01/17 14:12:30;;;;;;;1.30;1.20;;;20.00;65.50;;;;;;4970357;28;20120;-14
2023/01/17 14:14:57;;;;;;;1.55;1.30;;;20.00;65.70;;;;;;5037038;28;20106;-15
2023/01/17 14:17:24;;;;;;;1.40;1.30;;;20.00;65.60;;;;;;5038596;28;20128;-14
2023/01/17 14:19:59;;;;;;;1.10;1.10;;;20.00;65.60;;;;;;5058015;28;20060;-14
2023/01/17 14:22:25;;;;;;;1.10;1.10;;;20.00;65.50;;;;;;5040372;28;20052;-22
2023/01/17 14:24:57;;;;;;;0.88;0.85;;;20.10;65.50;;;;;;5060534;28;20047;-14